sensor_id;sensor_type;location;lat;lon;timestamp;P1;durP1;ratioP1;P2;durP2;ratioP2
19404;SDS011;9838;49.384;8.292;2022-11-15T00:03:34;1.83;;;1.07;;
19404;SDS011;9838;49.384;8.292;2022-11-15T00:13:55;2.93;;;1.40;;
19404;SDS011;9838;49.384;8.292;2022-11-15T00:24:16;3.23;;;1.70;;
19404;SDS011;9838;49.384;8.292;2022-11-15T00:34:36;1.70;;;0.93;;
19404;SDS011;9838;49.384;8.292;2022-11-15T00:44:56;2.80;;;1.30;;
19404;SDS011;9838;49.384;8.292;2022-11-15T00:55:17;2.50;;;1.40;;
19404;SDS011;9838;49.384;8.292;2022-11-15T01:05:38;2.93;;;1.70;;
19404;SDS011;9838;49.384;8.292;2022-11-15T01:15:58;1.60;;;1.00;;
19404;SDS011;9838;49.384;8.292;2022-11-15T01:26:24;2.50;;;1.20;;
19404;SDS011;9838;49.384;8.292;2022-11-15T01:36:45;1.20;;;0.90;;
19404;SDS011;9838;49.384;8.292;2022-11-15T01:47:07;1.60;;;0.90;;
19404;SDS011;9838;49.384;8.292;2022-11-15T01:57:28;1.60;;;1.00;;
19404;SDS011;9838;49.384;8.292;2022-11-15T02:07:49;1.77;;;1.30;;
19404;SDS011;9838;49.384;8.292;2022-11-15T02:28:44;1.80;;;0.90;;
19404;SDS011;9838;49.384;8.292;2022-11-15T02:49:37;2.07;;;1.03;;
19404;SDS011;9838;49.384;8.292;2022-11-15T03:00:04;1.47;;;0.93;;
19404;SDS011;9838;49.384;8.292;2022-11-15T03:10:36;2.50;;;1.10;;
19404;SDS011;9838;49.384;8.292;2022-11-15T03:21:01;2.20;;;1.17;;
19404;SDS011;9838;49.384;8.292;2022-11-15T03:31:22;1.40;;;0.80;;
19404;SDS011;9838;49.384;8.292;2022-11-15T03:42:13;1.47;;;0.93;;
19404;SDS011;9838;49.384;8.292;2022-11-15T03:52:35;1.90;;;0.90;;
19404;SDS011;9838;49.384;8.292;2022-11-15T04:02:56;1.13;;;0.83;;
19404;SDS011;9838;49.384;8.292;2022-11-15T04:13:17;1.57;;;0.97;;
19404;SDS011;9838;49.384;8.292;2022-11-15T04:23:37;1.67;;;0.80;;
19404;SDS011;9838;49.384;8.292;2022-11-15T04:34:26;1.60;;;0.70;;
19404;SDS011;9838;49.384;8.292;2022-11-15T04:44:47;1.50;;;0.90;;
19404;SDS011;9838;49.384;8.292;2022-11-15T04:55:07;1.63;;;0.90;;
19404;SDS011;9838;49.384;8.292;2022-11-15T05:05:28;1.93;;;0.80;;
19404;SDS011;9838;49.384;8.292;2022-11-15T05:15:49;2.03;;;1.07;;
19404;SDS011;9838;49.384;8.292;2022-11-15T05:26:09;2.03;;;1.00;;
19404;SDS011;9838;49.384;8.292;2022-11-15T05:46:57;0.93;;;0.70;;
19404;SDS011;9838;49.384;8.292;2022-11-15T05:57:17;1.60;;;0.70;;
19404;SDS011;9838;49.384;8.292;2022-11-15T06:07:38;5.27;;;2.33;;
19404;SDS011;9838;49.384;8.292;2022-11-15T06:17:59;6.23;;;3.33;;
19404;SDS011;9838;49.384;8.292;2022-11-15T06:28:19;1.23;;;0.90;;
19404;SDS011;9838;49.384;8.292;2022-11-15T06:38:39;1.13;;;0.73;;
19404;SDS011;9838;49.384;8.292;2022-11-15T06:49:00;1.77;;;0.93;;
19404;SDS011;9838;49.384;8.292;2022-11-15T06:59:20;1.07;;;0.63;;
19404;SDS011;9838;49.384;8.292;2022-11-15T07:09:41;3.33;;;1.00;;
19404;SDS011;9838;49.384;8.292;2022-11-15T07:20:02;1.50;;;0.80;;
19404;SDS011;9838;49.384;8.292;2022-11-15T07:30:22;1.80;;;0.93;;
19404;SDS011;9838;49.384;8.292;2022-11-15T07:40:43;2.30;;;1.10;;
19404;SDS011;9838;49.384;8.292;2022-11-15T07:51:03;2.13;;;1.27;;
19404;SDS011;9838;49.384;8.292;2022-11-15T08:01:24;4.03;;;1.57;;
19404;SDS011;9838;49.384;8.292;2022-11-15T08:11:44;1.63;;;1.03;;
19404;SDS011;9838;49.384;8.292;2022-11-15T08:22:04;2.63;;;1.27;;
19404;SDS011;9838;49.384;8.292;2022-11-15T08:32:24;1.00;;;0.67;;
19404;SDS011;9838;49.384;8.292;2022-11-15T08:42:46;1.43;;;0.97;;
19404;SDS011;9838;49.384;8.292;2022-11-15T08:53:06;1.90;;;0.87;;
19404;SDS011;9838;49.384;8.292;2022-11-15T09:03:28;2.33;;;1.37;;
19404;SDS011;9838;49.384;8.292;2022-11-15T09:13:49;3.03;;;1.33;;
19404;SDS011;9838;49.384;8.292;2022-11-15T09:24:09;1.20;;;0.93;;
19404;SDS011;9838;49.384;8.292;2022-11-15T09:34:29;1.80;;;0.97;;
19404;SDS011;9838;49.384;8.292;2022-11-15T09:55:11;1.50;;;0.70;;
19404;SDS011;9838;49.384;8.292;2022-11-15T10:05:23;1.77;;;1.07;;
19404;SDS011;9838;49.384;8.292;2022-11-15T10:15:27;2.07;;;1.20;;
19404;SDS011;9838;49.384;8.292;2022-11-15T10:25:30;1.53;;;0.93;;
19404;SDS011;9838;49.384;8.292;2022-11-15T10:35:33;2.27;;;1.13;;
19404;SDS011;9838;49.384;8.292;2022-11-15T10:45:36;2.30;;;1.10;;
19404;SDS011;9838;49.384;8.292;2022-11-15T10:55:38;3.43;;;1.30;;
19404;SDS011;9838;49.384;8.292;2022-11-15T11:05:41;1.20;;;0.80;;
19404;SDS011;9838;49.384;8.292;2022-11-15T11:15:44;2.17;;;0.87;;
19404;SDS011;9838;49.384;8.292;2022-11-15T11:46:14;1.33;;;0.90;;
19404;SDS011;9838;49.384;8.292;2022-11-15T11:56:25;1.40;;;0.93;;
19404;SDS011;9838;49.384;8.292;2022-11-15T12:06:39;1.00;;;0.80;;
19404;SDS011;9838;49.384;8.292;2022-11-15T12:16:43;1.33;;;0.70;;
19404;SDS011;9838;49.384;8.292;2022-11-15T12:26:50;1.70;;;1.03;;
19404;SDS011;9838;49.384;8.292;2022-11-15T12:36:58;1.30;;;0.70;;
19404;SDS011;9838;49.384;8.292;2022-11-15T12:47:02;1.73;;;0.80;;
19404;SDS011;9838;49.384;8.292;2022-11-15T13:07:07;1.23;;;0.87;;
19404;SDS011;9838;49.384;8.292;2022-11-15T13:27:18;0.70;;;0.57;;
19404;SDS011;9838;49.384;8.292;2022-11-15T13:47:27;2.10;;;0.90;;
19404;SDS011;9838;49.384;8.292;2022-11-15T13:57:53;1.90;;;1.23;;
19404;SDS011;9838;49.384;8.292;2022-11-15T14:07:56;2.80;;;1.00;;
19404;SDS011;9838;49.384;8.292;2022-11-15T14:17:59;2.83;;;1.00;;
19404;SDS011;9838;49.384;8.292;2022-11-15T14:28:10;1.80;;;1.07;;
19404;SDS011;9838;49.384;8.292;2022-11-15T14:38:12;1.83;;;1.03;;
19404;SDS011;9838;49.384;8.292;2022-11-15T14:48:14;3.17;;;1.23;;
19404;SDS011;9838;49.384;8.292;2022-11-15T14:58:17;2.63;;;1.60;;
19404;SDS011;9838;49.384;8.292;2022-11-15T15:08:19;4.57;;;1.37;;
19404;SDS011;9838;49.384;8.292;2022-11-15T15:18:21;2.40;;;1.00;;
19404;SDS011;9838;49.384;8.292;2022-11-15T15:28:23;2.33;;;1.23;;
19404;SDS011;9838;49.384;8.292;2022-11-15T15:38:25;1.87;;;1.30;;
19404;SDS011;9838;49.384;8.292;2022-11-15T15:48:27;1.87;;;1.00;;
19404;SDS011;9838;49.384;8.292;2022-11-15T15:58:29;1.93;;;1.00;;
19404;SDS011;9838;49.384;8.292;2022-11-15T16:08:32;3.43;;;1.87;;
19404;SDS011;9838;49.384;8.292;2022-11-15T16:18:34;1.37;;;1.00;;
19404;SDS011;9838;49.384;8.292;2022-11-15T16:28:36;3.60;;;1.10;;
19404;SDS011;9838;49.384;8.292;2022-11-15T16:38:38;1.63;;;1.00;;
19404;SDS011;9838;49.384;8.292;2022-11-15T16:48:40;4.20;;;2.53;;
19404;SDS011;9838;49.384;8.292;2022-11-15T16:58:41;2.37;;;1.57;;
19404;SDS011;9838;49.384;8.292;2022-11-15T17:08:44;4.50;;;1.20;;
19404;SDS011;9838;49.384;8.292;2022-11-15T17:18:48;7.87;;;5.20;;
19404;SDS011;9838;49.384;8.292;2022-11-15T17:28:54;5.10;;;2.40;;
19404;SDS011;9838;49.384;8.292;2022-11-15T17:38:56;7.90;;;3.63;;
19404;SDS011;9838;49.384;8.292;2022-11-15T17:48:58;5.67;;;4.00;;
19404;SDS011;9838;49.384;8.292;2022-11-15T17:59:00;6.77;;;3.50;;
19404;SDS011;9838;49.384;8.292;2022-11-15T18:09:02;3.57;;;2.27;;
19404;SDS011;9838;49.384;8.292;2022-11-15T18:19:04;4.27;;;1.53;;
19404;SDS011;9838;49.384;8.292;2022-11-15T18:29:10;4.03;;;2.50;;
19404;SDS011;9838;49.384;8.292;2022-11-15T18:39:13;4.43;;;2.33;;
19404;SDS011;9838;49.384;8.292;2022-11-15T18:49:16;3.23;;;1.80;;
19404;SDS011;9838;49.384;8.292;2022-11-15T18:59:19;2.43;;;1.40;;
19404;SDS011;9838;49.384;8.292;2022-11-15T19:09:22;1.60;;;1.20;;
19404;SDS011;9838;49.384;8.292;2022-11-15T19:19:27;2.07;;;1.20;;
19404;SDS011;9838;49.384;8.292;2022-11-15T19:29:29;6.00;;;2.00;;
19404;SDS011;9838;49.384;8.292;2022-11-15T19:39:30;2.50;;;1.70;;
19404;SDS011;9838;49.384;8.292;2022-11-15T19:49:32;4.93;;;3.40;;
19404;SDS011;9838;49.384;8.292;2022-11-15T19:59:34;3.50;;;2.40;;
19404;SDS011;9838;49.384;8.292;2022-11-15T20:09:36;6.30;;;2.70;;
19404;SDS011;9838;49.384;8.292;2022-11-15T20:19:38;5.27;;;3.03;;
19404;SDS011;9838;49.384;8.292;2022-11-15T20:29:40;4.60;;;2.73;;
19404;SDS011;9838;49.384;8.292;2022-11-15T20:39:43;5.90;;;3.90;;
19404;SDS011;9838;49.384;8.292;2022-11-15T20:49:45;5.40;;;4.13;;
19404;SDS011;9838;49.384;8.292;2022-11-15T20:59:47;8.90;;;5.37;;
19404;SDS011;9838;49.384;8.292;2022-11-15T21:09:49;2.90;;;1.77;;
19404;SDS011;9838;49.384;8.292;2022-11-15T21:20:10;4.23;;;1.73;;
19404;SDS011;9838;49.384;8.292;2022-11-15T21:30:12;2.10;;;1.30;;
19404;SDS011;9838;49.384;8.292;2022-11-15T21:40:14;1.83;;;1.17;;
19404;SDS011;9838;49.384;8.292;2022-11-15T21:50:17;3.33;;;2.10;;
19404;SDS011;9838;49.384;8.292;2022-11-15T22:00:19;4.60;;;1.70;;
19404;SDS011;9838;49.384;8.292;2022-11-15T22:10:40;1.43;;;1.00;;
19404;SDS011;9838;49.384;8.292;2022-11-15T22:20:42;2.50;;;1.77;;
19404;SDS011;9838;49.384;8.292;2022-11-15T22:30:59;3.03;;;1.60;;
19404;SDS011;9838;49.384;8.292;2022-11-15T22:41:02;4.07;;;1.57;;
19404;SDS011;9838;49.384;8.292;2022-11-15T22:51:04;2.83;;;1.63;;
19404;SDS011;9838;49.384;8.292;2022-11-15T23:01:14;1.97;;;1.30;;
19404;SDS011;9838;49.384;8.292;2022-11-15T23:11:21;1.70;;;1.23;;
19404;SDS011;9838;49.384;8.292;2022-11-15T23:21:43;2.30;;;1.03;;
19404;SDS011;9838;49.384;8.292;2022-11-15T23:32:04;2.60;;;1.17;;
19404;SDS011;9838;49.384;8.292;2022-11-15T23:42:24;4.27;;;1.33;;
19404;SDS011;9838;49.384;8.292;2022-11-15T23:52:26;2.23;;;1.53;;
